Time;durP1;ratioP1;P1;durP2;ratioP2;P2;SDS_P1;SDS_P2;PMS_P1;PMS_P2;Temp;Humidity;BMP_temperature;BMP_pressure;BME280_temperature;BME280_humidity;BME280_pressure;Samples;Min_cycle;Max_cycle;Signal;HPM_P1;HPM_P2
2023/06/22 00:01:47;;;;;;;;;;;19.00;99.90;;;;;;5084477;28;19963;-73
2023/06/22 00:04:12;;;;;;;;;;;19.00;99.90;;;;;;5096810;28;19984;-73
2023/06/22 00:06:38;;;;;;;;;;;19.00;99.90;;;;;;5097885;28;19931;-73
2023/06/22 00:09:03;;;;;;;;;;;19.00;99.90;;;;;;5098628;28;19931;-73
2023/06/22 00:11:31;;;;;;;;;;;19.00;99.90;;;;;;5099395;28;19924;-73
2023/06/22 00:13:56;;;;;;;;;;;18.90;99.90;;;;;;5081010;28;19924;-73
2023/06/22 00:16:22;;;;;;;;;;;18.90;99.90;;;;;;5098571;28;19928;-73
2023/06/22 00:18:48;;;;;;;;;;;18.90;99.90;;;;;;5098215;28;19924;-73
2023/06/22 00:21:14;;;;;;;;;;;18.90;99.90;;;;;;5097796;28;19931;-73
2023/06/22 00:23:39;;;;;;;;;;;18.80;99.90;;;;;;5094218;28;20308;-73
2023/06/22 00:26:05;;;;;;;;;;;18.80;99.90;;;;;;5092391;28;19928;-73
2023/06/22 00:28:30;;;;;;;;;;;18.80;99.90;;;;;;5093404;28;19924;-73
2023/06/22 00:30:56;;;;;;;;;;;18.80;99.90;;;;;;5094878;28;20416;-73
2023/06/22 00:33:21;;;;;;;;;;;18.80;99.90;;;;;;5093995;28;19931;-73
2023/06/22 00:35:47;;;;;;;;;;;18.70;99.90;;;;;;5094384;28;20393;-73
2023/06/22 00:38:12;;;;;;;;;;;18.70;99.90;;;;;;5091635;28;20015;-73
2023/06/22 00:40:38;;;;;;;;;;;18.60;99.90;;;;;;5090943;28;19928;-73
2023/06/22 00:43:04;;;;;;;;;;;18.60;99.90;;;;;;5092274;28;20013;-73
2023/06/22 00:45:30;;;;;;;;;;;18.60;99.90;;;;;;5091313;28;19930;-72
2023/06/22 00:47:56;;;;;;;;;;;18.50;99.90;;;;;;5092157;28;19924;-74
2023/06/22 00:50:23;;;;;;;;;;;18.60;99.90;;;;;;5090409;28;20033;-73
2023/06/22 00:52:56;;;;;;;;;;;18.50;99.90;;;;;;5086873;28;19924;-73
2023/06/22 00:55:21;;;;;;;;;;;18.50;99.90;;;;;;5094884;28;19924;-73
2023/06/22 00:57:47;;;;;;;;;;;18.50;99.90;;;;;;5080589;28;19931;-73
2023/06/22 01:00:15;;;;;;;;;;;18.40;99.90;;;;;;5090640;28;19924;-73
2023/06/22 01:02:41;;;;;;;;;;;18.40;99.90;;;;;;5095298;28;20300;-73
2023/06/22 01:05:06;;;;;;;;;;;18.30;99.90;;;;;;5089918;28;19977;-73
2023/06/22 01:07:36;;;;;;;;;;;18.30;99.90;;;;;;5095015;28;19927;-72
2023/06/22 01:10:11;;;;;;;;;;;18.30;99.90;;;;;;5091346;28;20263;-73
2023/06/22 01:12:43;;;;;;;;;;;18.30;99.90;;;;;;5089914;28;20019;-73
2023/06/22 01:15:11;;;;;;;;;;;18.30;99.90;;;;;;5097651;28;20014;-73
2023/06/22 01:17:40;;;;;;;;;;;18.20;99.90;;;;;;5094949;28;19924;-73
2023/06/22 01:20:06;;;;;;;;;;;18.20;99.90;;;;;;5097793;28;20464;-73
2023/06/22 01:22:38;;;;;;;;;;;18.20;99.90;;;;;;5091175;28;19963;-73
2023/06/22 01:25:09;;;;;;;;;;;18.10;99.90;;;;;;5095776;28;19928;-73
2023/06/22 01:27:41;;;;;;;;;;;18.10;99.90;;;;;;5092157;28;19964;-73
2023/06/22 01:30:10;;;;;;;;;;;18.10;99.90;;;;;;5093676;28;19934;-73
2023/06/22 01:32:37;;;;;;;;;;;18.10;99.90;;;;;;5092126;28;19973;-74
2023/06/22 01:35:04;;;;;;;;;;;18.00;99.90;;;;;;5092592;28;20006;-73
2023/06/22 01:37:32;;;;;;;;;;;18.00;99.90;;;;;;5093023;28;20442;-73
2023/06/22 01:39:58;;;;;;;;;;;18.00;99.90;;;;;;5095046;28;19924;-73
2023/06/22 01:42:27;;;;;;;;;;;17.90;99.90;;;;;;5091600;28;19924;-73
2023/06/22 01:44:53;;;;;;;;;;;17.90;99.90;;;;;;5089634;28;19985;-73
2023/06/22 01:47:19;;;;;;;;;;;17.90;99.90;;;;;;5091933;28;19931;-73
2023/06/22 01:49:45;;;;;;;;;;;17.90;99.90;;;;;;5095958;28;19924;-73
2023/06/22 01:52:11;;;;;;;;;;;17.90;99.90;;;;;;5094389;28;19935;-73
2023/06/22 01:54:37;;;;;;;;;;;17.90;99.90;;;;;;5093623;28;19930;-73
2023/06/22 01:57:03;;;;;;;;;;;17.90;99.90;;;;;;5093438;28;19994;-73
2023/06/22 01:59:32;;;;;;;;;;;17.80;99.90;;;;;;5079871;28;19931;-73
2023/06/22 02:02:01;;;;;;;;;;;17.80;99.90;;;;;;5094889;28;19928;-73
2023/06/22 02:04:29;;;;;;;;;;;17.80;99.90;;;;;;5096038;28;20381;-73
2023/06/22 02:06:57;;;;;;;;;;;17.80;99.90;;;;;;5094963;28;19924;-73
2023/06/22 02:09:23;;;;;;;;;;;17.80;99.90;;;;;;5096706;28;19924;-73
2023/06/22 02:11:51;;;;;;;;;;;17.80;99.90;;;;;;5094883;28;19974;-74
2023/06/22 02:14:17;;;;;;;;;;;17.80;99.90;;;;;;5095152;28;20866;-73
2023/06/22 02:16:43;;;;;;;;;;;17.70;99.90;;;;;;5095511;28;19947;-73
2023/06/22 02:19:08;;;;;;;;;;;17.70;99.90;;;;;;5096030;28;19924;-73
2023/06/22 02:21:34;;;;;;;;;;;17.70;99.90;;;;;;5088673;28;19924;-73
2023/06/22 02:23:59;;;;;;;;;;;17.70;99.90;;;;;;5079556;28;20350;-73
2023/06/22 02:26:25;;;;;;;;;;;17.70;99.90;;;;;;5089297;28;19924;-73
2023/06/22 02:28:51;;;;;;;;;;;17.70;99.90;;;;;;5085218;28;20450;-73
2023/06/22 02:31:17;;;;;;;;;;;17.70;99.90;;;;;;5084802;28;19932;-73
2023/06/22 02:33:43;;;;;;;;;;;17.70;99.90;;;;;;5089312;28;19924;-73
2023/06/22 02:36:09;;;;;;;;;;;17.70;99.90;;;;;;5091533;28;19992;-73
2023/06/22 02:38:36;;;;;;;;;;;17.70;99.90;;;;;;5093599;28;20010;-73
2023/06/22 02:41:01;;;;;;;;;;;17.60;99.90;;;;;;5094568;28;19970;-73
2023/06/22 02:43:27;;;;;;;;;;;17.60;99.90;;;;;;5094380;28;19967;-74
2023/06/22 02:45:52;;;;;;;;;;;17.60;99.90;;;;;;5094444;28;19932;-73
2023/06/22 02:48:18;;;;;;;;;;;17.60;99.90;;;;;;5095468;28;19990;-73
2023/06/22 02:50:43;;;;;;;;;;;17.60;99.90;;;;;;5077835;28;19976;-73
2023/06/22 02:53:09;;;;;;;;;;;17.60;99.90;;;;;;5094278;28;20059;-74
2023/06/22 02:55:34;;;;;;;;;;;17.60;99.90;;;;;;5095262;28;19924;-74
2023/06/22 02:58:04;;;;;;;;;;;17.50;99.90;;;;;;5096040;28;20542;-73
2023/06/22 03:00:30;;;;;;;;;;;17.50;99.90;;;;;;5095564;28;20367;-73
2023/06/22 03:02:56;;;;;;;;;;;17.50;99.90;;;;;;5093980;28;20016;-73
2023/06/22 03:05:21;;;;;;;;;;;17.50;99.90;;;;;;5095249;28;19947;-73
2023/06/22 03:07:47;;;;;;;;;;;17.60;99.90;;;;;;5095227;28;19924;-73
2023/06/22 03:10:13;;;;;;;;;;;17.50;99.90;;;;;;5094431;28;19924;-73
2023/06/22 03:12:39;;;;;;;;;;;17.60;99.90;;;;;;5094168;28;20404;-73
2023/06/22 03:15:06;;;;;;;;;;;17.50;99.90;;;;;;5095762;28;19932;-73
2023/06/22 03:17:31;;;;;;;;;;;17.50;99.90;;;;;;5094802;28;20437;-73
2023/06/22 03:19:56;;;;;;;;;;;17.50;99.90;;;;;;5095960;28;19932;-74
2023/06/22 03:22:22;;;;;;;;;;;17.50;99.90;;;;;;5077293;28;19924;-74
2023/06/22 03:24:47;;;;;;;;;;;17.50;99.90;;;;;;5088011;28;19947;-74
2023/06/22 03:27:13;;;;;;;;;;;17.50;99.90;;;;;;5088168;28;20390;-74
2023/06/22 03:29:38;;;;;;;;;;;17.50;99.90;;;;;;5091521;28;20043;-74
2023/06/22 03:32:05;;;;;;;;;;;17.40;99.90;;;;;;5077785;28;20010;-74
2023/06/22 03:34:33;;;;;;;;;;;17.40;99.90;;;;;;5093644;28;20461;-74
2023/06/22 03:36:59;;;;;;;;;;;17.40;99.90;;;;;;5092689;28;19924;-74
2023/06/22 03:39:24;;;;;;;;;;;17.40;99.90;;;;;;5095473;28;20419;-74
2023/06/22 03:41:50;;;;;;;;;;;17.40;99.90;;;;;;5095469;28;19939;-74
2023/06/22 03:44:15;;;;;;;;;;;17.40;99.90;;;;;;5098864;28;19931;-74
2023/06/22 03:46:41;;;;;;;;;;;17.40;99.90;;;;;;5099360;28;19924;-74
2023/06/22 03:49:06;;;;;;;;;;;17.40;99.90;;;;;;5079722;28;19976;-74
2023/06/22 03:51:32;;;;;;;;;;;17.40;99.90;;;;;;5097730;28;20385;-74
2023/06/22 03:53:58;;;;;;;;;;;17.40;99.90;;;;;;5098139;28;19924;-74
2023/06/22 03:56:23;;;;;;;;;;;17.50;99.90;;;;;;5099060;28;20066;-74
2023/06/22 03:58:49;;;;;;;;;;;17.50;99.90;;;;;;5093860;28;19935;-74
2023/06/22 04:01:16;;;;;;;;;;;17.50;99.90;;;;;;5095313;27;20003;-74
2023/06/22 04:03:42;;;;;;;;;;;17.50;99.90;;;;;;5099706;28;19924;-74
2023/06/22 04:06:07;;;;;;;;;;;17.50;99.90;;;;;;5094789;27;20038;-74
2023/06/22 04:08:33;;;;;;;;;;;17.50;99.90;;;;;;5093044;28;19931;-74
2023/06/22 04:10:59;;;;;;;;;;;17.60;99.90;;;;;;5097057;28;20003;-74
2023/06/22 04:13:24;;;;;;;;;;;17.60;99.90;;;;;;5092779;28;20404;-74
2023/06/22 04:15:49;;;;;;;;;;;17.60;99.90;;;;;;5092628;28;19924;-74
2023/06/22 04:18:15;;;;;;;;;;;17.70;99.90;;;;;;5097895;28;20818;-74
2023/06/22 04:20:40;;;;;;;;;;;17.70;99.90;;;;;;5098223;28;19930;-73
2023/06/22 04:23:06;;;;;;;;;;;17.70;99.90;;;;;;5092374;28;20317;-74
2023/06/22 04:25:31;;;;;;;;;;;17.70;99.90;;;;;;5095008;28;20291;-74
2023/06/22 04:27:57;;;;;;;;;;;17.80;99.90;;;;;;5095752;28;19977;-73
2023/06/22 04:30:22;;;;;;;;;;;17.80;99.90;;;;;;5095897;28;19947;-74
2023/06/22 04:32:57;;;;;;;;;;;17.80;99.90;;;;;;5095154;28;19924;-74
2023/06/22 04:35:25;;;;;;;;;;;17.80;99.90;;;;;;5092904;28;20003;-74
2023/06/22 04:37:54;;;;;;;;;;;17.90;99.90;;;;;;5094067;28;19986;-74
2023/06/22 04:40:21;;;;;;;;;;;17.90;99.90;;;;;;5092161;28;20750;-74
2023/06/22 04:42:52;;;;;;;;;;;18.00;99.90;;;;;;5090219;28;19938;-74
2023/06/22 04:45:17;;;;;;;;;;;18.00;99.90;;;;;;5092339;28;19931;-74
2023/06/22 04:47:45;;;;;;;;;;;18.10;99.90;;;;;;5091567;28;19925;-74
2023/06/22 04:50:11;;;;;;;;;;;18.10;99.90;;;;;;5091781;28;19928;-74
2023/06/22 04:52:37;;;;;;;;;;;18.10;99.90;;;;;;5091929;28;19976;-74
2023/06/22 04:55:03;;;;;;;;;;;18.20;99.90;;;;;;5091488;28;19928;-74
2023/06/22 04:57:32;;;;;;;;;;;18.30;99.90;;;;;;5092091;28;19931;-74
2023/06/22 05:00:12;;;;;;;;;;;18.40;99.90;;;;;;5091850;28;20297;-74
2023/06/22 05:02:40;;;;;;;;;;;18.50;99.90;;;;;;5090630;28;19924;-74
2023/06/22 05:05:06;;;;;;;;;;;18.60;99.90;;;;;;5090533;28;19935;-74
2023/06/22 05:07:35;;;;;;;;;;;18.70;99.90;;;;;;5090961;28;20452;-74
2023/06/22 05:10:02;;;;;;;;;;;18.70;99.90;;;;;;5091909;28;19958;-74
2023/06/22 05:12:28;;;;;;;;;;;18.80;99.90;;;;;;5090593;28;19978;-74
2023/06/22 05:14:54;;;;;;;;;;;18.90;99.90;;;;;;5092059;28;19960;-74
2023/06/22 05:17:19;;;;;;;;;;;19.00;99.90;;;;;;5090143;28;19975;-73
2023/06/22 05:19:48;;;;;;;;;;;19.00;99.90;;;;;;5091451;28;19935;-73
2023/06/22 05:22:14;;;;;;;;;;;19.00;99.90;;;;;;5094095;28;19931;-73
2023/06/22 05:24:40;;;;;;;;;;;19.10;99.90;;;;;;5093488;28;19985;-74
2023/06/22 05:27:05;;;;;;;;;;;19.20;99.90;;;;;;5091305;28;19932;-73
2023/06/22 05:29:31;;;;;;;;;;;19.20;99.90;;;;;;5088245;28;20685;-74
2023/06/22 05:31:56;;;;;;;;;;;19.20;99.90;;;;;;5088765;28;20433;-74
2023/06/22 05:34:22;;;;;;;;;;;19.30;99.90;;;;;;5090105;28;20403;-74
2023/06/22 05:36:47;;;;;;;;;;;19.30;99.90;;;;;;5088073;28;19924;-74
2023/06/22 05:39:14;;;;;;;;;;;19.40;99.90;;;;;;5089988;28;19931;-74
2023/06/22 05:41:39;;;;;;;;;;;19.40;99.90;;;;;;5088621;28;19932;-74
2023/06/22 05:44:05;;;;;;;;;;;19.40;99.90;;;;;;5088982;28;19928;-74
2023/06/22 05:46:30;;;;;;;;;;;19.40;99.90;;;;;;5088949;28;20286;-74
2023/06/22 05:48:56;;;;;;;;;;;19.40;99.90;;;;;;5088873;28;19924;-74
2023/06/22 05:51:21;;;;;;;;;;;19.50;99.90;;;;;;5090618;28;19924;-74
2023/06/22 05:53:49;;;;;;;;;;;19.50;99.90;;;;;;5092271;28;19931;-74
2023/06/22 05:56:15;;;;;;;;;;;19.60;99.90;;;;;;5092017;28;19924;-74
2023/06/22 05:58:40;;;;;;;;;;;19.60;99.90;;;;;;5092630;28;20351;-74
2023/06/22 06:01:06;;;;;;;;;;;19.70;99.90;;;;;;5090479;28;19932;-74
2023/06/22 06:03:31;;;;;;;;;;;19.70;99.90;;;;;;5092994;28;19924;-74
2023/06/22 06:05:57;;;;;;;;;;;19.80;99.90;;;;;;5091501;28;19985;-74
2023/06/22 06:08:22;;;;;;;;;;;19.90;99.90;;;;;;5093634;28;19924;-74
2023/06/22 06:10:48;;;;;;;;;;;19.90;99.90;;;;;;5090866;28;19977;-74
2023/06/22 06:13:13;;;;;;;;;;;20.00;99.90;;;;;;5092048;28;19931;-74
2023/06/22 06:15:39;;;;;;;;;;;20.10;99.90;;;;;;5086714;28;20003;-74
2023/06/22 06:18:06;;;;;;;;;;;20.10;99.90;;;;;;5091972;28;20667;-74
2023/06/22 06:20:32;;;;;;;;;;;20.20;99.90;;;;;;5085240;28;19963;-74
2023/06/22 06:22:58;;;;;;;;;;;20.20;99.90;;;;;;5087053;28;19925;-74
2023/06/22 06:25:23;;;;;;;;;;;20.20;99.90;;;;;;5090695;28;20343;-74
2023/06/22 06:27:50;;;;;;;;;;;20.20;99.90;;;;;;5089958;28;19935;-74
2023/06/22 06:30:16;;;;;;;;;;;20.30;99.90;;;;;;5088845;28;20650;-74
2023/06/22 06:32:42;;;;;;;;;;;20.40;99.90;;;;;;5090428;28;20007;-74
2023/06/22 06:35:08;;;;;;;;;;;20.40;99.90;;;;;;5090680;28;20019;-74
2023/06/22 06:37:36;;;;;;;;;;;20.60;99.90;;;;;;5091310;28;20002;-74
2023/06/22 06:40:02;;;;;;;;;;;20.70;99.90;;;;;;5090779;28;19924;-74
2023/06/22 06:42:28;;;;;;;;;;;20.70;99.90;;;;;;5090367;28;19924;-74
2023/06/22 06:44:53;;;;;;;;;;;20.80;99.90;;;;;;5090367;28;19924;-74
2023/06/22 06:47:18;;;;;;;;;;;20.80;99.90;;;;;;5090928;28;19932;-74
2023/06/22 06:49:44;;;;;;;;;;;20.80;99.90;;;;;;5090066;28;19924;-74
2023/06/22 06:52:09;;;;;;;;;;;20.80;99.90;;;;;;5090152;28;19924;-74
2023/06/22 06:54:35;;;;;;;;;;;20.80;99.90;;;;;;5090728;28;19927;-74
2023/06/22 06:57:03;;;;;;;;;;;20.80;99.90;;;;;;5089743;28;19925;-74
2023/06/22 06:59:30;;;;;;;;;;;20.80;99.90;;;;;;5090103;28;20010;-74
2023/06/22 07:01:55;;;;;;;;;;;20.90;99.90;;;;;;5088392;28;19936;-74
2023/06/22 07:04:21;;;;;;;;;;;21.00;99.90;;;;;;5090807;28;19924;-74
2023/06/22 07:06:46;;;;;;;;;;;21.00;99.90;;;;;;5088964;28;19989;-74
2023/06/22 07:09:12;;;;;;;;;;;21.00;99.90;;;;;;5089004;28;19931;-74
2023/06/22 07:11:37;;;;;;;;;;;21.10;99.90;;;;;;5090042;28;19928;-74
2023/06/22 07:14:03;;;;;;;;;;;21.20;99.90;;;;;;5089845;28;19932;-75
2023/06/22 07:16:29;;;;;;;;;;;21.30;99.90;;;;;;5089552;28;19924;-74
2023/06/22 07:18:55;;;;;;;;;;;21.40;99.90;;;;;;5088676;28;20069;-74
2023/06/22 07:21:21;;;;;;;;;;;21.40;99.90;;;;;;5089151;28;20014;-75
2023/06/22 07:23:46;;;;;;;;;;;21.40;99.90;;;;;;5089555;28;19928;-74
2023/06/22 07:26:12;;;;;;;;;;;21.40;99.90;;;;;;5088799;28;19928;-74
2023/06/22 07:28:40;;;;;;;;;;;21.50;99.90;;;;;;5089591;28;19924;-74
2023/06/22 07:31:06;;;;;;;;;;;21.50;99.90;;;;;;5090051;28;19928;-74
2023/06/22 07:33:31;;;;;;;;;;;21.60;99.90;;;;;;5091684;28;19931;-74
2023/06/22 07:35:57;;;;;;;;;;;21.60;99.90;;;;;;5089834;28;19924;-74
2023/06/22 07:38:22;;;;;;;;;;;21.70;99.90;;;;;;5094031;28;19970;-74
2023/06/22 07:40:48;;;;;;;;;;;21.90;99.90;;;;;;5090237;28;19931;-74
2023/06/22 07:43:13;;;;;;;;;;;21.90;99.90;;;;;;5089165;28;20281;-75
2023/06/22 07:45:40;;;;;;;;;;;22.00;99.90;;;;;;5092228;28;19924;-74
2023/06/22 07:48:06;;;;;;;;;;;22.10;99.90;;;;;;5088967;28;20299;-74
2023/06/22 07:50:32;;;;;;;;;;;22.10;99.90;;;;;;5093309;28;19924;-75
2023/06/22 07:52:57;;;;;;;;;;;22.20;99.90;;;;;;5091752;28;20298;-75
2023/06/22 07:55:23;;;;;;;;;;;22.20;99.90;;;;;;5092465;28;19931;-73
2023/06/22 07:57:49;;;;;;;;;;;22.20;99.90;;;;;;5092281;28;20031;-74
2023/06/22 08:00:15;;;;;;;;;;;22.20;99.90;;;;;;5089314;28;19925;-74
2023/06/22 08:02:41;;;;;;;;;;;22.20;99.90;;;;;;5089357;28;20622;-74
2023/06/22 08:05:08;;;;;;;;;;;22.20;99.90;;;;;;5087571;28;19928;-74
2023/06/22 08:07:35;;;;;;;;;;;22.30;99.90;;;;;;5089028;28;19993;-75
2023/06/22 08:10:00;;;;;;;;;;;22.40;99.90;;;;;;5089746;28;19931;-74
2023/06/22 08:12:26;;;;;;;;;;;22.50;99.90;;;;;;5089455;28;19924;-75
2023/06/22 08:14:51;;;;;;;;;;;22.50;99.90;;;;;;5088947;28;20405;-74
2023/06/22 08:17:17;;;;;;;;;;;22.60;99.90;;;;;;5087558;28;20011;-74
2023/06/22 08:19:42;;;;;;;;;;;22.70;99.90;;;;;;5094618;28;19924;-74
2023/06/22 08:22:08;;;;;;;;;;;22.80;99.90;;;;;;5092159;28;19924;-74
2023/06/22 08:24:33;;;;;;;;;;;22.90;99.90;;;;;;5092531;28;19991;-74
2023/06/22 08:26:59;;;;;;;;;;;22.90;99.90;;;;;;5097571;28;20476;-74
2023/06/22 08:29:24;;;;;;;;;;;23.00;99.90;;;;;;5092418;28;19928;-74
2023/06/22 08:31:50;;;;;;;;;;;23.10;99.90;;;;;;5093540;28;19931;-74
2023/06/22 08:34:15;;;;;;;;;;;23.20;99.90;;;;;;5095156;28;19925;-74
2023/06/22 08:36:44;;;;;;;;;;;23.20;99.90;;;;;;5092249;28;20024;-74
2023/06/22 08:39:10;;;;;;;;;;;23.30;99.90;;;;;;5095053;28;19924;-75
2023/06/22 08:41:36;;;;;;;;;;;23.30;99.90;;;;;;5095090;28;20490;-74
2023/06/22 08:44:02;;;;;;;;;;;23.40;99.90;;;;;;5095318;28;20427;-75
2023/06/22 08:46:31;;;;;;;;;;;23.50;99.90;;;;;;5092607;28;19931;-73
2023/06/22 08:48:57;;;;;;;;;;;23.50;99.90;;;;;;5090465;28;20022;-74
2023/06/22 08:51:23;;;;;;;;;;;23.50;99.90;;;;;;5090916;28;19931;-74
2023/06/22 08:53:49;;;;;;;;;;;23.50;99.90;;;;;;5092516;28;19928;-75
2023/06/22 08:56:14;;;;;;;;;;;23.60;99.90;;;;;;5093828;28;20357;-74
2023/06/22 08:58:40;;;;;;;;;;;23.70;99.90;;;;;;5089984;28;19971;-74
2023/06/22 09:01:05;;;;;;;;;;;23.80;99.90;;;;;;5094824;28;19924;-74
2023/06/22 09:03:32;;;;;;;;;;;23.90;99.90;;;;;;5095043;28;20294;-74
2023/06/22 09:05:58;;;;;;;;;;;24.00;99.90;;;;;;5096893;28;19931;-74
2023/06/22 09:08:24;;;;;;;;;;;24.10;99.90;;;;;;5096490;28;19924;-74
2023/06/22 09:10:49;;;;;;;;;;;24.10;99.90;;;;;;5097982;28;19928;-74
2023/06/22 09:13:15;;;;;;;;;;;24.30;99.90;;;;;;5095905;28;20339;-74
2023/06/22 09:15:40;;;;;;;;;;;24.30;99.90;;;;;;5099135;28;19975;-74
2023/06/22 09:18:06;;;;;;;;;;;24.40;99.90;;;;;;5096181;28;20748;-74
2023/06/22 09:20:31;;;;;;;;;;;24.50;99.90;;;;;;5097916;28;20309;-74
2023/06/22 09:22:57;;;;;;;;;;;24.60;99.90;;;;;;5091558;28;19967;-74
2023/06/22 09:25:23;;;;;;;;;;;24.80;99.90;;;;;;5090228;28;19924;-75
2023/06/22 09:27:48;;;;;;;;;;;25.10;99.90;;;;;;5073092;28;19928;-75
2023/06/22 09:30:14;;;;;;;;;;;25.30;99.90;;;;;;5090687;28;20386;-75
2023/06/22 09:32:39;;;;;;;;;;;25.40;99.30;;;;;;5090173;28;19949;-75
2023/06/22 09:35:06;;;;;;;;;;;25.60;98.50;;;;;;5091557;28;20011;-74
2023/06/22 09:37:31;;;;;;;;;;;25.80;97.60;;;;;;5092901;28;20357;-75
2023/06/22 09:39:57;;;;;;;;;;;25.90;97.70;;;;;;5091985;28;19931;-75
2023/06/22 09:42:23;;;;;;;6.65;3.58;;;26.20;97.80;;;;;;5092737;28;19924;-75
2023/06/22 09:44:48;;;;;;;7.18;5.18;;;26.60;97.30;;;;;;5092906;28;20088;-76
2023/06/22 09:47:14;;;;;;;6.57;4.70;;;26.80;96.50;;;;;;5089651;28;20398;-75
2023/06/22 09:49:39;;;;;;;;;;;26.90;96.50;;;;;;5090756;28;20074;-75
2023/06/22 09:52:05;;;;;;;6.78;4.47;;;26.90;96.00;;;;;;5090388;28;20368;-75
2023/06/22 09:54:31;;;;;;;6.03;4.43;;;27.00;95.50;;;;;;5092718;28;20421;-75
2023/06/22 09:56:57;;;;;;;;;;;27.00;95.80;;;;;;5093563;28;20052;-75
2023/06/22 09:59:22;;;;;;;4.97;3.35;;;27.10;95.60;;;;;;5088687;28;19919;-75
2023/06/22 10:01:48;;;;;;;5.97;3.93;;;27.20;95.00;;;;;;5092304;28;20397;-75
2023/06/22 10:04:13;;;;;;;5.40;3.93;;;27.50;95.00;;;;;;5094078;28;20931;-75
2023/06/22 10:06:40;;;;;;;5.00;3.53;;;27.70;95.00;;;;;;5092430;28;20397;-75
2023/06/22 10:09:07;;;;;;;5.53;3.42;;;27.80;94.90;;;;;;5091978;28;20413;-75
2023/06/22 10:11:34;;;;;;;5.72;3.85;;;28.00;94.70;;;;;;5088758;28;20544;-75
2023/06/22 10:14:00;;;;;;;;;;;28.20;93.70;;;;;;5090379;28;20040;-75
2023/06/22 10:16:32;;;;;;;;;;;28.30;93.30;;;;;;5092940;28;20405;-75
2023/06/22 10:18:58;;;;;;;6.72;3.88;;;28.40;93.40;;;;;;5095529;28;19920;-76
2023/06/22 10:21:26;;;;;;;6.15;3.20;;;28.40;92.90;;;;;;5092635;28;20413;-75
2023/06/22 10:23:51;;;;;;;6.68;3.67;;;28.40;94.30;;;;;;5088293;28;20426;-75
2023/06/22 10:26:17;;;;;;;6.82;3.97;;;28.60;94.30;;;;;;5088612;28;20471;-75
2023/06/22 10:28:43;;;;;;;4.40;3.10;;;28.70;93.70;;;;;;5087404;28;20957;-75
2023/06/22 10:31:08;;;;;;;;;;;28.80;93.30;;;;;;5090865;28;20048;-75
2023/06/22 10:33:34;;;;;;;;;;;28.70;93.30;;;;;;5091510;28;19965;-75
2023/06/22 10:35:59;;;;;;;;;;;28.80;93.30;;;;;;5088756;28;19920;-75
2023/06/22 10:38:25;;;;;;;;;;;28.80;93.00;;;;;;5089598;28;19927;-75
2023/06/22 10:40:50;;;;;;;;;;;28.80;92.50;;;;;;5088138;28;20010;-75
2023/06/22 10:43:16;;;;;;;4.40;2.90;;;28.80;92.60;;;;;;5092540;28;19924;-75
2023/06/22 10:45:41;;;;;;;3.83;2.37;;;28.90;92.20;;;;;;5092271;28;20416;-75
2023/06/22 10:48:07;;;;;;;;;;;28.90;92.70;;;;;;5088807;28;20132;-75
2023/06/22 10:50:32;;;;;;;;;;;28.90;92.20;;;;;;5096014;28;19954;-75
2023/06/22 10:52:58;;;;;;;;;;;29.00;92.50;;;;;;5099102;28;19926;-75
2023/06/22 10:55:23;;;;;;;;;;;29.10;91.70;;;;;;5093829;28;20444;-75
2023/06/22 10:57:49;;;;;;;;;;;29.00;91.60;;;;;;5089889;28;20477;-75
2023/06/22 11:00:15;;;;;;;;;;;28.90;91.80;;;;;;5090581;28;19924;-75
2023/06/22 11:02:41;;;;;;;;;;;28.90;91.40;;;;;;5099304;28;20354;-75
2023/06/22 11:05:07;;;;;;;;;;;28.80;91.00;;;;;;5090127;28;19924;-75
2023/06/22 11:07:33;;;;;;;;;;;28.80;90.80;;;;;;5100906;28;19920;-75
2023/06/22 11:09:58;;;;;;;;;;;28.80;91.20;;;;;;5096999;28;20404;-75
2023/06/22 11:12:24;;;;;;;;;;;28.70;91.40;;;;;;5102035;28;20299;-75
2023/06/22 11:14:51;;;;;;;;;;;28.80;91.40;;;;;;5095818;28;19924;-75
2023/06/22 11:17:17;;;;;;;;;;;28.80;91.70;;;;;;5101459;28;19926;-75
2023/06/22 11:19:43;;;;;;;;;;;29.00;91.30;;;;;;5095743;28;20313;-75
2023/06/22 11:22:09;;;;;;;;;;;29.10;91.50;;;;;;5092679;28;19990;-75
2023/06/22 11:24:34;;;;;;;4.10;2.25;;;29.40;91.00;;;;;;5091331;28;20413;-75
2023/06/22 11:27:00;;;;;;;3.03;1.80;;;29.40;90.50;;;;;;5090770;28;20406;-75
2023/06/22 11:29:26;;;;;;;3.37;1.90;;;29.40;90.70;;;;;;5090634;28;20428;-75
2023/06/22 11:31:51;;;;;;;3.63;1.75;;;29.40;90.80;;;;;;5094998;28;20596;-75
2023/06/22 11:34:18;;;;;;;3.78;1.90;;;29.50;90.40;;;;;;5090752;28;20409;-75
2023/06/22 11:36:44;;;;;;;3.70;1.85;;;29.50;90.60;;;;;;5092734;28;20413;-75
2023/06/22 11:39:10;;;;;;;4.07;2.05;;;29.70;90.50;;;;;;5090472;28;20429;-75
2023/06/22 11:41:36;;;;;;;3.83;2.30;;;29.80;88.80;;;;;;5093470;28;20506;-75
2023/06/22 11:44:04;;;;;;;3.85;1.85;;;29.70;89.30;;;;;;5090648;28;20049;-75
2023/06/22 11:46:29;;;;;;;5.25;2.28;;;29.60;89.80;;;;;;5092155;28;20101;-75
2023/06/22 11:48:55;;;;;;;4.72;2.38;;;29.60;90.00;;;;;;5090391;28;20051;-75
2023/06/22 11:51:21;;;;;;;4.18;2.30;;;29.50;89.20;;;;;;5094450;28;20447;-75
2023/06/22 11:53:46;;;;;;;5.70;2.87;;;29.50;89.80;;;;;;5093818;28;20402;-75
2023/06/22 11:56:12;;;;;;;4.90;2.50;;;29.50;89.50;;;;;;5095187;28;20402;-75
2023/06/22 11:58:38;;;;;;;4.23;2.10;;;29.60;89.60;;;;;;5094296;28;20899;-74
2023/06/22 12:01:03;;;;;;;3.97;2.08;;;29.70;88.60;;;;;;5094474;28;20757;-75
2023/06/22 12:03:29;;;;;;;4.05;2.35;;;29.60;89.40;;;;;;5094460;28;20438;-75
2023/06/22 12:05:55;;;;;;;4.37;2.30;;;29.50;88.30;;;;;;5098616;28;20487;-75
2023/06/22 12:08:21;;;;;;;3.83;2.03;;;29.40;88.00;;;;;;5095378;28;20409;-74
2023/06/22 12:10:48;;;;;;;3.83;2.20;;;29.30;89.00;;;;;;5098951;27;20407;-74
2023/06/22 12:13:15;;;;;;;4.90;2.30;;;29.30;88.70;;;;;;5095450;28;20398;-75
2023/06/22 12:15:40;;;;;;;4.32;2.20;;;29.30;89.40;;;;;;5098709;28;20905;-74
2023/06/22 12:18:06;;;;;;;5.27;2.70;;;29.40;88.80;;;;;;5094204;28;20406;-75
2023/06/22 12:20:32;;;;;;;4.63;2.22;;;29.40;88.30;;;;;;5098453;28;20404;-74
2023/06/22 12:22:58;;;;;;;4.00;1.90;;;29.30;87.40;;;;;;5089853;28;20495;-74
2023/06/22 12:25:23;;;;;;;3.50;1.60;;;29.00;87.80;;;;;;5089906;28;20911;-75
2023/06/22 12:27:49;;;;;;;3.17;1.75;;;28.90;87.60;;;;;;5093288;28;20546;-74
2023/06/22 12:30:16;;;;;;;5.32;2.15;;;28.80;87.10;;;;;;5093840;28;20413;-74
2023/06/22 12:32:41;;;;;;;4.60;2.00;;;28.70;87.20;;;;;;5092974;28;20398;-74
2023/06/22 12:35:11;;;;;;;4.23;2.00;;;28.70;87.90;;;;;;5095758;28;20425;-74
2023/06/22 12:37:37;;;;;;;4.10;2.28;;;28.70;87.80;;;;;;5093477;28;20438;-74
2023/06/22 12:40:03;;;;;;;4.57;2.00;;;28.60;87.70;;;;;;5095114;28;20452;-74
2023/06/22 12:42:29;;;;;;;5.18;1.90;;;28.60;88.10;;;;;;5091546;28;20406;-74
2023/06/22 12:44:55;;;;;;;4.67;1.77;;;28.50;87.50;;;;;;5093864;28;20453;-74
2023/06/22 12:47:20;;;;;;;4.63;1.70;;;28.50;88.30;;;;;;5092813;28;20911;-74
2023/06/22 12:49:46;;;;;;;2.97;1.60;;;28.50;87.60;;;;;;5093625;28;20395;-74
2023/06/22 12:52:12;;;;;;;4.30;2.03;;;28.50;87.80;;;;;;5092717;28;20798;-74
2023/06/22 12:54:37;;;;;;;4.30;2.07;;;28.50;86.30;;;;;;5095048;28;20413;-74
2023/06/22 12:57:03;;;;;;;3.60;1.63;;;28.40;86.50;;;;;;5092820;28;20402;-74
2023/06/22 12:59:29;;;;;;;4.07;1.60;;;28.30;86.90;;;;;;5095785;28;20443;-74
2023/06/22 13:01:54;;;;;;;3.73;1.87;;;28.30;87.40;;;;;;5091728;28;20402;-74
2023/06/22 13:04:21;;;;;;;3.53;1.87;;;28.20;87.00;;;;;;5091217;28;20460;-75
2023/06/22 13:06:47;;;;;;;4.97;1.67;;;28.00;85.90;;;;;;5092009;28;20394;-75
2023/06/22 13:09:14;;;;;;;3.35;1.60;;;27.90;86.50;;;;;;5092776;28;20401;-74
2023/06/22 13:11:40;;;;;;;4.93;1.88;;;27.80;87.80;;;;;;5088074;28;20421;-74
2023/06/22 13:14:06;;;;;;;4.03;1.52;;;27.80;87.20;;;;;;5092970;28;20398;-74
2023/06/22 13:16:32;;;;;;;3.47;1.70;;;27.70;86.30;;;;;;5090046;28;20393;-74
2023/06/22 13:18:57;;;;;;;4.73;1.80;;;27.60;85.90;;;;;;5093648;28;20390;-74
2023/06/22 13:21:23;;;;;;;3.57;1.80;;;27.40;86.10;;;;;;5094002;28;20479;-74
2023/06/22 13:23:48;;;;;;;3.92;1.63;;;27.20;86.20;;;;;;5091896;28;20426;-74
2023/06/22 13:26:14;;;;;;;4.18;1.60;;;27.10;86.80;;;;;;5089600;28;20406;-74
2023/06/22 13:28:39;;;;;;;3.08;1.30;;;26.90;86.70;;;;;;5093160;28;20501;-74
2023/06/22 13:31:05;;;;;;;4.23;1.57;;;26.90;87.60;;;;;;5093503;28;20543;-74
2023/06/22 13:33:31;;;;;;;3.57;1.60;;;26.80;87.40;;;;;;5095373;28;20461;-74
2023/06/22 13:35:57;;;;;;;3.20;1.42;;;26.80;87.30;;;;;;5093394;28;20408;-74
2023/06/22 13:38:22;;;;;;;3.93;1.47;;;26.80;87.00;;;;;;5095112;28;21129;-74
2023/06/22 13:40:49;;;;;;;4.73;1.77;;;26.70;87.30;;;;;;5087249;28;20405;-74
2023/06/22 13:43:15;;;;;;;4.30;1.90;;;26.60;88.00;;;;;;5097037;28;20812;-74
2023/06/22 13:45:41;;;;;;;3.42;1.45;;;26.40;88.10;;;;;;5094336;28;20875;-74
2023/06/22 13:48:07;;;;;;;3.85;1.50;;;26.30;88.40;;;;;;5097531;28;20485;-74